sensor_id;sensor_type;location;lat;lon;timestamp;P1;durP1;ratioP1;P2;durP2;ratioP2
57718;SDS011;43561;50.090;18.522;2023-02-26T00:03:48;19.00;;;11.77;;
57718;SDS011;43561;50.090;18.522;2023-02-26T00:13:54;20.65;;;14.98;;
57718;SDS011;43561;50.090;18.522;2023-02-26T00:23:57;31.23;;;17.92;;
57718;SDS011;43561;50.090;18.522;2023-02-26T00:33:59;37.08;;;18.90;;
57718;SDS011;43561;50.090;18.522;2023-02-26T00:44:01;31.77;;;16.98;;
57718;SDS011;43561;50.090;18.522;2023-02-26T00:54:08;34.28;;;16.73;;
57718;SDS011;43561;50.090;18.522;2023-02-26T01:04:11;6.25;;;5.35;;
57718;SDS011;43561;50.090;18.522;2023-02-26T01:14:14;18.77;;;7.28;;
57718;SDS011;43561;50.090;18.522;2023-02-26T01:24:17;10.95;;;6.22;;
57718;SDS011;43561;50.090;18.522;2023-02-26T01:44:58;6.30;;;4.27;;
57718;SDS011;43561;50.090;18.522;2023-02-26T01:55:04;4.82;;;3.75;;
57718;SDS011;43561;50.090;18.522;2023-02-26T02:05:10;8.50;;;7.10;;
57718;SDS011;43561;50.090;18.522;2023-02-26T02:25:43;10.48;;;6.55;;
57718;SDS011;43561;50.090;18.522;2023-02-26T02:46:39;5.30;;;4.07;;
57718;SDS011;43561;50.090;18.522;2023-02-26T02:56:55;5.13;;;4.18;;
57718;SDS011;43561;50.090;18.522;2023-02-26T03:07:02;6.35;;;4.45;;
57718;SDS011;43561;50.090;18.522;2023-02-26T03:17:18;5.90;;;5.15;;
57718;SDS011;43561;50.090;18.522;2023-02-26T03:37:55;10.75;;;6.55;;
57718;SDS011;43561;50.090;18.522;2023-02-26T03:48:02;9.10;;;5.80;;
57718;SDS011;43561;50.090;18.522;2023-02-26T03:58:06;5.28;;;3.80;;
57718;SDS011;43561;50.090;18.522;2023-02-26T04:08:26;6.53;;;4.78;;
57718;SDS011;43561;50.090;18.522;2023-02-26T04:18:29;5.30;;;4.32;;
57718;SDS011;43561;50.090;18.522;2023-02-26T04:28:31;4.95;;;4.35;;
57718;SDS011;43561;50.090;18.522;2023-02-26T04:38:33;5.65;;;3.65;;
57718;SDS011;43561;50.090;18.522;2023-02-26T04:48:35;10.85;;;5.60;;
57718;SDS011;43561;50.090;18.522;2023-02-26T04:58:38;4.20;;;3.35;;
57718;SDS011;43561;50.090;18.522;2023-02-26T05:08:44;11.27;;;3.80;;
57718;SDS011;43561;50.090;18.522;2023-02-26T05:18:46;9.23;;;5.15;;
57718;SDS011;43561;50.090;18.522;2023-02-26T05:28:48;4.75;;;4.25;;
57718;SDS011;43561;50.090;18.522;2023-02-26T05:38:50;4.75;;;3.58;;
57718;SDS011;43561;50.090;18.522;2023-02-26T05:48:52;7.60;;;4.65;;
57718;SDS011;43561;50.090;18.522;2023-02-26T05:58:54;13.80;;;6.50;;
57718;SDS011;43561;50.090;18.522;2023-02-26T06:08:55;11.13;;;6.13;;
57718;SDS011;43561;50.090;18.522;2023-02-26T06:18:57;5.88;;;4.75;;
57718;SDS011;43561;50.090;18.522;2023-02-26T06:28:59;10.35;;;4.97;;
57718;SDS011;43561;50.090;18.522;2023-02-26T06:39:01;13.65;;;7.40;;
57718;SDS011;43561;50.090;18.522;2023-02-26T06:49:03;11.50;;;10.38;;
57718;SDS011;43561;50.090;18.522;2023-02-26T06:59:05;16.40;;;9.38;;
57718;SDS011;43561;50.090;18.522;2023-02-26T07:09:13;20.27;;;8.40;;
57718;SDS011;43561;50.090;18.522;2023-02-26T07:19:15;18.17;;;9.38;;
57718;SDS011;43561;50.090;18.522;2023-02-26T07:29:17;14.98;;;5.43;;
57718;SDS011;43561;50.090;18.522;2023-02-26T07:39:19;12.13;;;6.85;;
57718;SDS011;43561;50.090;18.522;2023-02-26T07:49:21;14.60;;;10.13;;
57718;SDS011;43561;50.090;18.522;2023-02-26T07:59:23;34.28;;;18.27;;
57718;SDS011;43561;50.090;18.522;2023-02-26T08:09:26;14.05;;;7.80;;
57718;SDS011;43561;50.090;18.522;2023-02-26T08:19:32;7.05;;;2.97;;
57718;SDS011;43561;50.090;18.522;2023-02-26T08:29:34;19.83;;;9.55;;
57718;SDS011;43561;50.090;18.522;2023-02-26T08:39:36;23.08;;;13.55;;
57718;SDS011;43561;50.090;18.522;2023-02-26T08:49:38;21.08;;;11.60;;
57718;SDS011;43561;50.090;18.522;2023-02-26T08:59:40;16.63;;;8.25;;
57718;SDS011;43561;50.090;18.522;2023-02-26T09:09:42;12.82;;;7.45;;
57718;SDS011;43561;50.090;18.522;2023-02-26T09:19:47;4.75;;;4.18;;
57718;SDS011;43561;50.090;18.522;2023-02-26T09:29:49;8.65;;;6.60;;
57718;SDS011;43561;50.090;18.522;2023-02-26T09:39:51;8.82;;;6.72;;
57718;SDS011;43561;50.090;18.522;2023-02-26T09:50:03;6.57;;;5.68;;
57718;SDS011;43561;50.090;18.522;2023-02-26T10:00:22;4.82;;;2.60;;
57718;SDS011;43561;50.090;18.522;2023-02-26T10:30:59;5.45;;;2.78;;
57718;SDS011;43561;50.090;18.522;2023-02-26T10:41:12;10.77;;;4.63;;
57718;SDS011;43561;50.090;18.522;2023-02-26T10:51:21;11.40;;;5.77;;
57718;SDS011;43561;50.090;18.522;2023-02-26T11:01:27;7.03;;;4.45;;
57718;SDS011;43561;50.090;18.522;2023-02-26T11:12:04;4.13;;;3.38;;
57718;SDS011;43561;50.090;18.522;2023-02-26T11:22:13;8.52;;;4.38;;
57718;SDS011;43561;50.090;18.522;2023-02-26T11:32:21;10.00;;;4.35;;
57718;SDS011;43561;50.090;18.522;2023-02-26T11:42:25;18.02;;;9.80;;
57718;SDS011;43561;50.090;18.522;2023-02-26T11:52:29;10.93;;;6.03;;
57718;SDS011;43561;50.090;18.522;2023-02-26T12:02:33;10.95;;;4.05;;
57718;SDS011;43561;50.090;18.522;2023-02-26T12:44:28;7.30;;;4.88;;
57718;SDS011;43561;50.090;18.522;2023-02-26T13:05:22;9.73;;;3.63;;
57718;SDS011;43561;50.090;18.522;2023-02-26T13:26:10;9.95;;;4.88;;
57718;SDS011;43561;50.090;18.522;2023-02-26T13:36:14;13.77;;;7.90;;
57718;SDS011;43561;50.090;18.522;2023-02-26T13:46:28;10.70;;;9.07;;
57718;SDS011;43561;50.090;18.522;2023-02-26T14:08:07;10.85;;;8.02;;
57718;SDS011;43561;50.090;18.522;2023-02-26T14:18:28;14.43;;;7.05;;
57718;SDS011;43561;50.090;18.522;2023-02-26T14:28:33;7.32;;;4.63;;
57718;SDS011;43561;50.090;18.522;2023-02-26T14:38:42;10.60;;;5.78;;
57718;SDS011;43561;50.090;18.522;2023-02-26T14:48:45;9.55;;;6.50;;
57718;SDS011;43561;50.090;18.522;2023-02-26T15:30:13;5.85;;;4.90;;
57718;SDS011;43561;50.090;18.522;2023-02-26T15:40:16;14.93;;;7.13;;
57718;SDS011;43561;50.090;18.522;2023-02-26T15:50:18;15.52;;;7.40;;
57718;SDS011;43561;50.090;18.522;2023-02-26T16:00:25;19.60;;;9.63;;
57718;SDS011;43561;50.090;18.522;2023-02-26T16:20:44;36.85;;;8.88;;
57718;SDS011;43561;50.090;18.522;2023-02-26T16:30:51;12.02;;;8.80;;
57718;SDS011;43561;50.090;18.522;2023-02-26T16:40:59;16.90;;;7.50;;
57718;SDS011;43561;50.090;18.522;2023-02-26T16:51:13;14.27;;;7.10;;
57718;SDS011;43561;50.090;18.522;2023-02-26T17:01:17;18.77;;;8.02;;
57718;SDS011;43561;50.090;18.522;2023-02-26T17:11:23;10.98;;;7.60;;
57718;SDS011;43561;50.090;18.522;2023-02-26T17:21:32;20.65;;;8.93;;
57718;SDS011;43561;50.090;18.522;2023-02-26T17:31:37;16.40;;;10.75;;
57718;SDS011;43561;50.090;18.522;2023-02-26T17:41:43;20.88;;;12.65;;
57718;SDS011;43561;50.090;18.522;2023-02-26T17:51:45;8.70;;;6.88;;
57718;SDS011;43561;50.090;18.522;2023-02-26T18:01:47;7.90;;;5.80;;
57718;SDS011;43561;50.090;18.522;2023-02-26T18:11:49;30.95;;;13.48;;
57718;SDS011;43561;50.090;18.522;2023-02-26T18:21:55;50.78;;;26.98;;
57718;SDS011;43561;50.090;18.522;2023-02-26T18:31:59;30.45;;;15.50;;
57718;SDS011;43561;50.090;18.522;2023-02-26T18:42:01;48.58;;;23.63;;
57718;SDS011;43561;50.090;18.522;2023-02-26T18:52:03;49.38;;;25.13;;
57718;SDS011;43561;50.090;18.522;2023-02-26T19:02:05;24.15;;;18.50;;
57718;SDS011;43561;50.090;18.522;2023-02-26T19:12:08;34.40;;;26.60;;
57718;SDS011;43561;50.090;18.522;2023-02-26T19:22:12;23.58;;;11.48;;
57718;SDS011;43561;50.090;18.522;2023-02-26T19:32:15;36.92;;;21.13;;
57718;SDS011;43561;50.090;18.522;2023-02-26T19:42:17;27.33;;;17.88;;
57718;SDS011;43561;50.090;18.522;2023-02-26T19:52:19;16.40;;;14.52;;
57718;SDS011;43561;50.090;18.522;2023-02-26T20:02:21;10.43;;;8.57;;
57718;SDS011;43561;50.090;18.522;2023-02-26T20:12:23;19.60;;;13.65;;
57718;SDS011;43561;50.090;18.522;2023-02-26T20:22:25;26.58;;;15.15;;
57718;SDS011;43561;50.090;18.522;2023-02-26T20:32:27;15.00;;;9.65;;
57718;SDS011;43561;50.090;18.522;2023-02-26T20:42:29;31.10;;;13.38;;
57718;SDS011;43561;50.090;18.522;2023-02-26T20:52:31;32.63;;;18.17;;
57718;SDS011;43561;50.090;18.522;2023-02-26T21:02:33;12.52;;;9.80;;
57718;SDS011;43561;50.090;18.522;2023-02-26T21:12:37;25.50;;;13.95;;
57718;SDS011;43561;50.090;18.522;2023-02-26T21:22:39;12.27;;;8.50;;
57718;SDS011;43561;50.090;18.522;2023-02-26T21:32:41;27.80;;;13.57;;
57718;SDS011;43561;50.090;18.522;2023-02-26T21:42:43;22.70;;;12.20;;
57718;SDS011;43561;50.090;18.522;2023-02-26T21:52:45;25.40;;;14.40;;
57718;SDS011;43561;50.090;18.522;2023-02-26T22:02:47;21.58;;;9.93;;
57718;SDS011;43561;50.090;18.522;2023-02-26T22:12:49;20.67;;;9.85;;
57718;SDS011;43561;50.090;18.522;2023-02-26T22:22:51;22.75;;;10.77;;
57718;SDS011;43561;50.090;18.522;2023-02-26T22:32:53;28.08;;;11.07;;
57718;SDS011;43561;50.090;18.522;2023-02-26T22:42:55;19.85;;;8.98;;
57718;SDS011;43561;50.090;18.522;2023-02-26T22:52:57;24.65;;;11.75;;
57718;SDS011;43561;50.090;18.522;2023-02-26T23:02:59;11.95;;;6.10;;
57718;SDS011;43561;50.090;18.522;2023-02-26T23:13:01;18.40;;;10.07;;
57718;SDS011;43561;50.090;18.522;2023-02-26T23:23:03;19.92;;;7.85;;
57718;SDS011;43561;50.090;18.522;2023-02-26T23:33:05;12.05;;;7.82;;
57718;SDS011;43561;50.090;18.522;2023-02-26T23:43:07;18.70;;;9.20;;
57718;SDS011;43561;50.090;18.522;2023-02-26T23:53:09;21.60;;;8.27;;
